Time;durP1;ratioP1;P1;durP2;ratioP2;P2;SDS_P1;SDS_P2;PMS_P1;PMS_P2;Temp;Humidity;BMP_temperature;BMP_pressure;BME280_temperature;BME280_humidity;BME280_pressure;Samples;Min_cycle;Max_cycle;Signal;HPM_P1;HPM_P2
2022/10/19 00:02:16;;;;;;;;;;;;;;;;;;5089072;28;19911;-51
2022/10/19 00:04:42;;;;;;;;;;;;;;;;;;5088581;28;19942;-50
2022/10/19 00:07:08;;;;;;;;;;;;;;;;;;5087300;28;19943;-51
2022/10/19 00:09:34;;;;;;;;;;;;;;;;;;5089195;28;20298;-50
2022/10/19 00:11:59;;;;;;;;;;;;;;;;;;5088823;28;19904;-51
2022/10/19 00:14:25;;;;;;;;;;;;;;;;;;5068849;28;20323;-48
2022/10/19 00:16:51;;;;;;;;;;;;;;;;;;5067462;28;19904;-51
2022/10/19 00:19:17;;;;;;;;;;;;;;;;;;5067450;28;19904;-47
2022/10/19 00:21:43;;;;;;;;;;;;;;;;;;5067000;28;19914;-51
2022/10/19 00:24:09;;;;;;;;;;;;;;;;;;5067207;28;20421;-50
2022/10/19 00:26:35;;;;;;;;;;;;;;;;;;5084088;28;19908;-50
2022/10/19 00:29:01;;;;;;;;;;;;;;;;;;5087569;28;19912;-49
2022/10/19 00:31:27;;;;;;;;;;;;;;;;;;5085440;28;19966;-50
2022/10/19 00:33:53;;;;;;;;;;;;;;;;;;5087414;28;19936;-50
2022/10/19 00:36:19;;;;;;;;;;;;;;;;;;5087194;28;19904;-47
2022/10/19 00:38:44;;;;;;;;;;;;;;;;;;5087419;28;19904;-51
2022/10/19 00:41:10;;;;;;;;;;;;;;;;;;5086181;28;20431;-50
2022/10/19 00:43:36;;;;;;;;;;;;;;;;;;5087606;28;20371;-52
2022/10/19 00:46:02;;;;;;;;;;;;;;;;;;5086114;28;19912;-50
2022/10/19 00:48:28;;;;;;;;;;;;;;;;;;5087034;28;20586;-50
2022/10/19 00:50:54;;;;;;;;;;;;;;;;;;5086828;28;19912;-50
2022/10/19 00:53:20;;;;;;;;;;;;;;;;;;5086923;28;20375;-51
2022/10/19 00:55:46;;;;;;;;;;;;;;;;;;5087056;28;20146;-49
2022/10/19 00:58:12;;;;;;;;;;;;;;;;;;5087288;28;19958;-46
2022/10/19 01:00:37;;;;;;;;;;;;;;;;;;5086689;28;19912;-51
2022/10/19 01:03:03;;;;;;;;;;;;;;;;;;5087145;28;19998;-48
2022/10/19 01:05:29;;;;;;;;;;;;;;;;;;5086543;28;19907;-50
2022/10/19 01:07:55;;;;;;;;;;;;;;;;;;5087203;28;20294;-49
2022/10/19 01:10:21;;;;;;;;;;;;;;;;;;5085626;28;19926;-49
2022/10/19 01:12:47;;;;;;;;;;;;;;;;;;5090794;28;20539;-48
2022/10/19 01:15:13;;;;;;;;;;;;;;;;;;5090817;28;19951;-50
2022/10/19 01:17:39;;;;;;;;;;;;;;;;;;5089399;28;19907;-49
2022/10/19 01:20:04;;;;;;;;;;;;;;;;;;5091247;28;19911;-48
2022/10/19 01:22:30;;;;;;;;;;;;;;;;;;5090387;28;19915;-52
2022/10/19 01:24:56;;;;;;;;;;;;;;;;;;5090635;28;19943;-47
2022/10/19 01:27:22;;;;;;;;;;;;;;;;;;5090130;28;19912;-49
2022/10/19 01:29:48;;;;;;;;;;;;;;;;;;5090381;28;20371;-48
2022/10/19 01:32:14;;;;;;;;;;;;;;;;;;5090030;28;19990;-51
2022/10/19 01:34:40;;;;;;;;;;;;;;;;;;5090485;28;19939;-48
2022/10/19 01:37:06;;;;;;;;;;;;;;;;;;5091236;28;19904;-49
2022/10/19 01:39:31;;;;;;;;;;;;;;;;;;5084150;28;19955;-47
2022/10/19 01:41:57;;;;;;;;;;;;;;;;;;5087019;28;19908;-49
2022/10/19 01:44:23;;;;;;;;;;;;;;;;;;5090196;28;19914;-51
2022/10/19 01:46:49;;;;;;;;;;;;;;;;;;5090559;28;20412;-52
2022/10/19 01:49:15;;;;;;;;;;;;;;;;;;5090350;28;19911;-48
2022/10/19 01:51:41;;;;;;;;;;;;;;;;;;5089715;28;19904;-50
2022/10/19 01:54:07;;;;;;;;;;;;;;;;;;5090669;28;19904;-47
2022/10/19 01:56:33;;;;;;;;;;;;;;;;;;5087776;28;20431;-51
2022/10/19 01:58:58;;;;;;;;;;;;;;;;;;5090147;28;19935;-50
2022/10/19 02:01:24;;;;;;;;;;;;;;;;;;5089285;28;20389;-50
2022/10/19 02:03:50;;;;;;;;;;;;;;;;;;5090381;28;19911;-51
2022/10/19 02:06:16;;;;;;;;;;;;;;;;;;5088915;28;19930;-50
2022/10/19 02:08:42;;;;;;;;;;;;;;;;;;5089706;28;19946;-52
2022/10/19 02:11:08;;;;;;;;;;;;;;;;;;5090216;28;20414;-50
2022/10/19 02:13:34;;;;;;;;;;;;;;;;;;5089584;28;19904;-50
2022/10/19 02:16:00;;;;;;;;;;;;;;;;;;5088760;28;20440;-51
2022/10/19 02:18:25;;;;;;;;;;;;;;;;;;5089496;28;19904;-50
2022/10/19 02:20:51;;;;;;;;;;;;;;;;;;5089347;28;20401;-52
2022/10/19 02:23:17;;;;;;;;;;;;;;;;;;5089029;28;19977;-50
2022/10/19 02:25:43;;;;;;;;;;;;;;;;;;5089565;28;19941;-48
2022/10/19 02:28:09;;;;;;;;;;;;;;;;;;5090225;28;19912;-51
2022/10/19 02:30:35;;;;;;;;;;;;;;;;;;5088072;28;19931;-49
2022/10/19 02:33:01;;;;;;;;;;;;;;;;;;5089337;28;19911;-49
2022/10/19 02:35:27;;;;;;;;;;;;;;;;;;5089037;28;20004;-49
2022/10/19 02:37:52;;;;;;;;;;;;;;;;;;5089901;28;19934;-47
2022/10/19 02:40:18;;;;;;;;;;;;;;;;;;5089338;28;19904;-50
2022/10/19 02:42:44;;;;;;;;;;;;;;;;;;5088736;28;20298;-50
2022/10/19 02:45:10;;;;;;;;;;;;;;;;;;5089016;28;20028;-50
2022/10/19 02:47:36;;;;;;;;;;;;;;;;;;5088964;28;19904;-50
2022/10/19 02:50:02;;;;;;;;;;;;;;;;;;5089194;28;19912;-48
2022/10/19 02:52:29;;;;;;;;;;;;;;;;;;5089066;28;19956;-50
2022/10/19 02:54:55;;;;;;;;;;;;;;;;;;5088919;28;19904;-49
2022/10/19 02:57:20;;;;;;;;;;;;;;;;;;5073217;28;19912;-50
2022/10/19 02:59:46;;;;;;;;;;;;;;;;;;5068786;28;19905;-50
2022/10/19 03:02:12;;;;;;;;;;;;;;;;;;5069354;28;19931;-48
2022/10/19 03:04:40;;;;;;;;;;;;;;;;;;5069051;28;20595;-51
2022/10/19 03:07:06;;;;;;;;;;;;;;;;;;5068373;28;19957;-49
2022/10/19 03:09:32;;;;;;;;;;;;;;;;;;5068109;28;19908;-49
2022/10/19 03:11:58;;;;;;;;;;;;;;;;;;5081370;28;19908;-51
2022/10/19 03:14:24;;;;;;;;;;;;;;;;;;5088554;28;20397;-50
2022/10/19 03:16:49;;;;;;;;;;;;;;;;;;5087260;28;19957;-46
2022/10/19 03:19:15;;;;;;;;;;;;;;;;;;5086725;28;19911;-48
2022/10/19 03:21:41;;;;;;;;;;;;;;;;;;5077249;28;19962;-49
2022/10/19 03:24:07;;;;;;;;;;;;;;;;;;5088612;28;19904;-46
2022/10/19 03:26:33;;;;;;;;;;;;;;;;;;5088875;28;19919;-46
2022/10/19 03:28:59;;;;;;;;;;;;;;;;;;5088460;28;19926;-48
2022/10/19 03:31:26;;;;;;;;;;;;;;;;;;5088814;28;19961;-47
2022/10/19 03:33:51;;;;;;;;;;;;;;;;;;5088630;28;19904;-48
2022/10/19 03:36:17;;;;;;;;;;;;;;;;;;5087790;28;20003;-47
2022/10/19 03:38:43;;;;;;;;;;;;;;;;;;5089081;28;19915;-50
2022/10/19 03:41:09;;;;;;;;;;;;;;;;;;5089487;28;19915;-48
2022/10/19 03:43:35;;;;;;;;;;;;;;;;;;5089024;28;19904;-50
2022/10/19 03:46:01;;;;;;;;;;;;;;;;;;5088490;28;19908;-51
2022/10/19 03:48:27;;;;;;;;;;;;;;;;;;5087955;28;20287;-50
2022/10/19 03:50:53;;;;;;;;;;;;;;;;;;5088823;28;20006;-50
2022/10/19 03:53:18;;;;;;;;;;;;;;;;;;5087613;28;20024;-50
2022/10/19 03:55:44;;;;;;;;;;;;;;;;;;5088985;28;19904;-49
2022/10/19 03:58:10;;;;;;;;;;;;;;;;;;5089357;28;19904;-48
2022/10/19 04:00:36;;;;;;;;;;;;;;;;;;5081777;28;19935;-51
2022/10/19 04:03:02;;;;;;;;;;;;;;;;;;5068347;28;19904;-48
2022/10/19 04:05:28;;;;;;;;;;;;;;;;;;5072284;28;19915;-48
2022/10/19 04:07:54;;;;;;;;;;;;;;;;;;5078803;28;20417;-51
2022/10/19 04:10:19;;;;;;;;;;;;;;;;;;5086640;28;20061;-50
2022/10/19 04:12:45;;;;;;;;;;;;;;;;;;5087117;28;20464;-49
2022/10/19 04:15:11;;;;;;;;;;;;;;;;;;5067857;28;19905;-48
2022/10/19 04:17:37;;;;;;;;;;;;;;;;;;5067319;28;19905;-49
2022/10/19 04:20:03;;;;;;;;;;;;;;;;;;5068200;28;19924;-49
2022/10/19 04:22:29;;;;;;;;;;;;;;;;;;5066925;28;19904;-49
2022/10/19 04:24:55;;;;;;;;;;;;;;;;;;5068336;28;19905;-47
2022/10/19 04:27:21;;;;;;;;;;;;;;;;;;5087077;28;19908;-48
2022/10/19 04:29:46;;;;;;;;;;;;;;;;;;5087291;28;19930;-50
2022/10/19 04:32:12;;;;;;;;;;;;;;;;;;5087282;28;19908;-47
2022/10/19 04:34:38;;;;;;;;;;;;;;;;;;5080614;28;19908;-47
2022/10/19 04:37:04;;;;;;;;;;;;;;;;;;5076841;28;19912;-48
2022/10/19 04:39:30;;;;;;;;;;;;;;;;;;5086104;28;19948;-47
2022/10/19 04:41:56;;;;;;;;;;;;;;;;;;5086950;28;20425;-45
2022/10/19 04:44:22;;;;;;;;;;;;;;;;;;5086904;28;19999;-49
2022/10/19 04:46:48;;;;;;;;;;;;;;;;;;5088792;28;19908;-48
2022/10/19 04:49:14;;;;;;;;;;;;;;;;;;5080066;28;19916;-47
2022/10/19 04:51:39;;;;;;;;;;;;;;;;;;5085895;28;19908;-56
2022/10/19 04:54:05;;;;;;;;;;;;;;;;;;5092041;28;19915;-46
2022/10/19 04:56:31;;;;;;;;;;;;;;;;;;5092653;28;19904;-49
2022/10/19 04:58:57;;;;;;;;;;;;;;;;;;5073258;28;19916;-51
2022/10/19 05:01:23;;;;;;;;;;;;;;;;;;5074167;28;20033;-48
2022/10/19 05:03:49;;;;;;;;;;;;;;;;;;5074599;28;20049;-48
2022/10/19 05:06:15;;;;;;;;;;;;;;;;;;5083462;28;19904;-48
2022/10/19 05:08:41;;;;;;;;;;;;;;;;;;5088126;28;19907;-47
2022/10/19 05:11:06;;;;;;;;;;;;;;;;;;5091687;28;20268;-47
2022/10/19 05:13:32;;;;;;;;;;;;;;;;;;5091966;28;19908;-45
2022/10/19 05:15:58;;;;;;;;;;;;;;;;;;5091980;28;19909;-47
2022/10/19 05:18:24;;;;;;;;;;;;;;;;;;5090108;28;19999;-48
2022/10/19 05:20:50;;;;;;;;;;;;;;;;;;5092030;28;19957;-48
2022/10/19 05:23:16;;;;;;;;;;;;;;;;;;5090974;28;20467;-49
2022/10/19 05:25:42;;;;;;;;;;;;;;;;;;5092394;28;20418;-48
2022/10/19 05:28:08;;;;;;;;;;;;;;;;;;5091388;28;19951;-50
2022/10/19 05:30:34;;;;;;;;;;;;;;;;;;5090140;28;19916;-47
2022/10/19 05:33:00;;;;;;;;;;;;;;;;;;5081431;28;20352;-50
2022/10/19 05:35:25;;;;;;;;;;;;;;;;;;5081050;28;19916;-47
2022/10/19 05:37:51;;;;;;;;;;;;;;;;;;5078719;28;19904;-46
2022/10/19 05:40:17;;;;;;;;;;;;;;;;;;5071315;28;19904;-46
2022/10/19 05:42:43;;;;;;;;;;;;;;;;;;5071080;28;20011;-46
2022/10/19 05:45:09;;;;;;;;;;;;;;;;;;5072063;28;19950;-46
2022/10/19 05:47:35;;;;;;;;;;;;;;;;;;5087906;28;19938;-47
2022/10/19 05:50:01;;;;;;;;;;;;;;;;;;5087706;28;19912;-47
2022/10/19 05:52:27;;;;;;;;;;;;;;;;;;5090543;28;20283;-46
2022/10/19 05:54:53;;;;;;;;;;;;;;;;;;5091366;28;20306;-48
2022/10/19 05:57:18;;;;;;;;;;;;;;;;;;5085482;28;19914;-51
2022/10/19 05:59:44;;;;;;;;;;;;;;;;;;5096482;28;19915;-47
2022/10/19 06:02:10;;;;;;;;;;;;;;;;;;5085737;28;19908;-50
2022/10/19 06:04:36;;;;;;;;;;;;;;;;;;5076418;28;20380;-51
2022/10/19 06:07:02;;;;;;;;;;;;;;;;;;5085536;28;19908;-48
2022/10/19 06:09:34;;;;;;;;;;;;;;;;;;5089550;28;19939;-50
2022/10/19 06:12:00;;;;;;;;;;;;;;;;;;5085045;28;19998;-49
2022/10/19 06:14:26;;;;;;;;;;;;;;;;;;5090639;28;19950;-47
2022/10/19 06:16:52;;;;;;;;;;;;;;;;;;5090838;28;19904;-49
2022/10/19 06:19:18;;;;;;;;;;;;;;;;;;5090298;28;19908;-51
2022/10/19 06:21:44;;;;;;;;;;;;;;;;;;5076919;28;20384;-48
2022/10/19 06:24:10;;;;;;;;;;;;;;;;;;5071013;28;19904;-48
2022/10/19 06:26:36;;;;;;;;;;;;;;;;;;5070576;28;19904;-49
2022/10/19 06:29:01;;;;;;;;;;;;;;;;;;5070078;28;19912;-49
2022/10/19 06:31:27;;;;;;;;;;;;;;;;;;5070059;28;19908;-52
2022/10/19 06:33:53;;;;;;;;;;;;;;;;;;5089529;28;19904;-51
2022/10/19 06:36:19;;;;;;;;;;;;;;;;;;5086220;28;19908;-51
2022/10/19 06:38:45;;;;;;;;;;;;;;;;;;5085369;28;19908;-49
2022/10/19 06:41:11;;;;;;;;;;;;;;;;;;5070283;28;20294;-48
2022/10/19 06:43:37;;;;;;;;;;;;;;;;;;5077166;28;19912;-47
2022/10/19 06:46:03;;;;;;;;;;;;;;;;;;5073089;28;20454;-46
2022/10/19 06:48:28;;;;;;;;;;;;;;;;;;5072874;28;19927;-48
2022/10/19 06:50:54;;;;;;;;;;;;;;;;;;5069464;28;20407;-49
2022/10/19 06:53:20;;;;;;;;;;;;;;;;;;5073145;28;20011;-47
2022/10/19 06:55:46;;;;;;;;;;;;;;;;;;5078229;28;19932;-49
2022/10/19 06:58:12;;;;;;;;;;;;;;;;;;5076082;28;19908;-49
2022/10/19 07:00:38;;;;;;;;;;;;;;;;;;5072919;28;19995;-51
2022/10/19 07:03:04;;;;;;;;;;;;;;;;;;5089907;28;19912;-49
2022/10/19 07:05:30;;;;;;;;;;;;;;;;;;5088976;28;20371;-48
2022/10/19 07:07:55;;;;;;;;;;;;;;;;;;5072210;28;19909;-49
2022/10/19 07:10:21;;;;;;;;;;;;;;;;;;5068635;28;19915;-50
2022/10/19 07:12:47;;;;;;;;;;;;;;;;;;5069456;28;20013;-50
2022/10/19 07:15:13;;;;;;;;;;;;;;;;;;5069512;28;19908;-46
2022/10/19 07:17:39;;;;;;;;;;;;;;;;;;5070056;28;19912;-50
2022/10/19 07:20:05;;;;;;;;;;;;;;;;;;5080676;28;19961;-49
2022/10/19 07:22:31;;;;;;;;;;;;;;;;;;5089630;28;19999;-51
2022/10/19 07:24:57;;;;;;;;;;;;;;;;;;5078910;28;19909;-48
2022/10/19 07:27:23;;;;;;;;;;;;;;;;;;5068850;28;20510;-46
2022/10/19 07:29:48;;;;;;;;;;;;;;;;;;5069133;28;20322;-48
2022/10/19 07:32:14;;;;;;;;;;;;;;;;;;5077453;28;19912;-50
2022/10/19 07:34:40;;;;;;;;;;;;;;;;;;5080251;28;20396;-50
2022/10/19 07:37:06;;;;;;;;;;;;;;;;;;5068991;28;19999;-49
2022/10/19 07:39:32;;;;;;;;;;;;;;;;;;5069026;28;20429;-48
2022/10/19 07:41:58;;;;;;;;;;;;;;;;;;5068817;28;19964;-48
2022/10/19 07:44:24;;;;;;;;;;;;;;;;;;5076840;28;19908;-47
2022/10/19 07:46:50;;;;;;;;;;;;;;;;;;5087063;28;19908;-50
2022/10/19 07:49:17;;;;;;;;;;;;;;;;;;5076218;28;19911;-49
2022/10/19 07:51:43;;;;;;;;;;;;;;;;;;5087109;28;20403;-50
2022/10/19 07:54:09;;;;;;;;;;;;;;;;;;5089490;28;19911;-47
2022/10/19 07:56:35;;;;;;;;;;;;;;;;;;5088935;28;19904;-47
2022/10/19 07:59:01;;;;;;;;;;;;;;;;;;5089138;28;19904;-50
2022/10/19 08:01:27;;;;;;;;;;;;;;;;;;5088408;28;19904;-48
2022/10/19 08:03:53;;;;;;;;;;;;;;;;;;5083734;28;19908;-49
2022/10/19 08:06:19;;;;;;;;;;;;;;;;;;5068499;28;19955;-47
2022/10/19 08:08:45;;;;;;;;;;;;;;;;;;5072808;28;19946;-48
2022/10/19 08:11:11;;;;;;;;;;;;;;;;;;5078881;28;19912;-48
2022/10/19 08:13:37;;;;;;;;;;;;;;;;;;5088504;28;20337;-47
2022/10/19 08:16:02;;;;;;;;;;;;;;;;;;5070926;28;19912;-51
2022/10/19 08:18:28;;;;;;;;;;;;;;;;;;5071521;28;19904;-47
2022/10/19 08:20:55;;;;;;;;;;;;;;;;;;5088165;28;19908;-48
2022/10/19 08:23:21;;;;;;;;;;;;;;;;;;5082934;28;19916;-49
2022/10/19 08:25:47;;;;;;;;;;;;;;;;;;5080957;28;19914;-48
2022/10/19 08:28:13;;;;;;;;;;;;;;;;;;5087605;28;19911;-51
2022/10/19 08:30:39;;;;;;;;;;;;;;;;;;5085220;28;19916;-48
2022/10/19 08:33:07;;;;;;;;;;;;;;;;;;5087030;28;19908;-49
2022/10/19 08:35:32;;;;;;;;;;;;;;;;;;5083609;28;19912;-48
2022/10/19 08:37:58;;;;;;;;;;;;;;;;;;5077415;28;20405;-51
2022/10/19 08:40:24;;;;;;;;;;;;;;;;;;5068022;28;19912;-47
2022/10/19 08:42:50;;;;;;;;;;;;;;;;;;5067976;28;19930;-50
2022/10/19 08:45:16;;;;;;;;;;;;;;;;;;5068142;28;20003;-48
2022/10/19 08:47:42;;;;;;;;;;;;;;;;;;5069820;28;19909;-48
2022/10/19 08:50:08;;;;;;;;;;;;;;;;;;5072142;28;19969;-47
2022/10/19 08:52:34;;;;;;;;;;;;;;;;;;5086363;28;19955;-48
2022/10/19 08:55:00;;;;;;;;;;;;;;;;;;5087699;28;20283;-50
2022/10/19 08:57:25;;;;;;;;;;;;;;;;;;5088009;28;19908;-49
2022/10/19 08:59:51;;;;;;;;;;;;;;;;;;5087358;28;20436;-50
2022/10/19 09:02:17;;;;;;;;;;;;;;;;;;5079355;28;19955;-50
2022/10/19 09:04:43;;;;;;;;;;;;;;;;;;5080228;28;19918;-49
2022/10/19 09:07:09;;;;;;;;;;;;;;;;;;5088167;28;19907;-50
2022/10/19 09:09:35;;;;;;;;;;;;;;;;;;5088055;28;19908;-48
2022/10/19 09:12:01;;;;;;;;;;;;;;;;;;5087842;28;20276;-51
2022/10/19 09:14:27;;;;;;;;;;;;;;;;;;5087052;28;19953;-50
2022/10/19 09:16:53;;;;;;;;;;;;;;;;;;5069499;28;20394;-48
2022/10/19 09:19:20;;;;;;;;;;;;;;;;;;5067509;28;19919;-51
2022/10/19 09:21:46;;;;;;;;;;;;;;;;;;5067642;28;19912;-50
2022/10/19 09:24:14;;;;;;;;;;;;;;;;;;5075663;28;20010;-47
2022/10/19 09:26:40;;;;;;;;;;;;;;;;;;5088272;28;20363;-47
2022/10/19 09:29:06;;;;;;;;;;;;;;;;;;5087457;28;19919;-47
2022/10/19 09:31:32;;;;;;;;;;;;;;;;;;5087383;28;19916;-51
2022/10/19 09:33:58;;;;;;;;;;;;;;;;;;5091622;28;19998;-49
2022/10/19 09:36:24;;;;;;;;;;;;;;;;;;5088060;28;19916;-51
2022/10/19 09:38:50;;;;;;;;;;;;;;;;;;5071392;28;20260;-48
2022/10/19 09:41:16;;;;;;;;;;;;;;;;;;5072334;28;19915;-49
2022/10/19 09:43:42;;;;;;;;;;;;;;;;;;5071723;28;19904;-47
2022/10/19 09:46:08;;;;;;;;;;;;;;;;;;5071349;28;19904;-50
2022/10/19 09:48:34;;;;;;;;;;;;;;;;;;5071197;28;19962;-49
2022/10/19 09:51:00;;;;;;;;;;;;;;;;;;5072029;28;19919;-51
2022/10/19 09:53:26;;;;;;;;;;;;;;;;;;5080046;28;19962;-49
2022/10/19 09:55:52;;;;;;;;;;;;;;;;;;5081619;28;19912;-50
2022/10/19 09:58:18;;;;;;;;;;;;;;;;;;5070745;28;19904;-49
2022/10/19 10:00:43;;;;;;;;;;;;;;;;;;5071096;28;19905;-48
2022/10/19 10:03:09;;;;;;;;;;;;;;;;;;5076773;28;19908;-49
2022/10/19 10:05:35;;;;;;;;;;;;;;;;;;5086462;28;19908;-51
2022/10/19 10:08:01;;;;;;;;;;;;;;;;;;5091010;28;20421;-48
2022/10/19 10:10:27;;;;;;;;;;;;;;;;;;5090437;28;19979;-50
2022/10/19 10:12:53;;;;;;;;;;;;;;;;;;5089234;28;19908;-49
2022/10/19 10:15:19;;;;;;;;;;;;;;;;;;5090840;28;19904;-49
2022/10/19 10:17:45;;;;;;;;;;;;;;;;;;5090911;28;19904;-50
2022/10/19 10:20:10;;;;;;;;;;;;;;;;;;5091125;28;19908;-51
2022/10/19 10:22:36;;;;;;;;;;;;;;;;;;5088988;28;19994;-51
2022/10/19 10:25:02;;;;;;;;;;;;;;;;;;5091120;28;20173;-48
2022/10/19 10:27:28;;;;;;;;;;;;;;;;;;5088999;28;19908;-46
2022/10/19 10:29:54;;;;;;;;;;;;;;;;;;5075956;28;20415;-50
2022/10/19 10:32:20;;;;;;;;;;;;;;;;;;5082889;28;19915;-50
2022/10/19 10:34:46;;;;;;;;;;;;;;;;;;5083588;28;20391;-51
2022/10/19 10:37:12;;;;;;;;;;;;;;;;;;5090050;28;19912;-46
2022/10/19 10:39:38;;;;;;;;;;;;;;;;;;5075477;28;20280;-47
2022/10/19 10:42:07;;;;;;;1.35;0.95;;;;;;;;;;5069789;28;20428;-50
2022/10/19 10:44:35;;;;;;;1.30;1.02;;;;;;;;;;5081416;28;20036;-50
2022/10/19 10:47:02;;;;;;;3.17;1.02;;;;;;;;;;5069487;28;20540;-49
2022/10/19 10:49:33;;;;;;;0.98;0.88;;;;;;;;;;5070447;28;20457;-50
2022/10/19 10:52:07;;;;;;;0.82;0.82;;;;;;;;;;5071439;28;20044;-49
2022/10/19 10:54:32;;;;;;;;;;;;;;;;;;5083572;28;20017;-50
2022/10/19 10:57:10;;;;;;;1.27;0.90;;;;;;;;;;5074845;28;20002;-48
2022/10/19 10:59:45;;;;;;;1.98;1.15;;;;;;;;;;5073682;28;20102;-49
2022/10/19 11:02:15;;;;;;;1.10;1.00;;;;;;;;;;5081811;28;20028;-47
2022/10/19 11:04:44;;;;;;;2.53;1.20;;;;;;;;;;5071370;28;20032;-50
2022/10/19 11:07:17;;;;;;;1.85;1.05;;;;;;;;;;5072275;28;20020;-50
2022/10/19 11:09:44;;;;;;;1.13;0.93;;;;;;;;;;5086274;28;20036;-49
2022/10/19 11:12:12;;;;;;;0.80;0.70;;;;;;;;;;5081412;28;20016;-49
2022/10/19 11:14:46;;;;;;;0.95;0.80;;;;;;;;;;5082110;28;20024;-47
2022/10/19 11:17:12;;;;;;;;;;;;;;;;;;5070590;28;20523;-50
2022/10/19 11:19:40;;;;;;;1.13;0.93;;;;;;;;;;5075780;28;19908;-47
2022/10/19 11:22:06;;;;;;;1.17;0.90;;;;;;;;;;5089532;28;20020;-47
2022/10/19 11:24:48;;;;;;;1.58;1.00;;;;;;;;;;5090001;28;20496;-49
2022/10/19 11:27:30;;;;;;;2.15;1.27;;;;;;;;;;5089775;28;20050;-46
2022/10/19 11:30:02;;;;;;;1.77;1.30;;;;;;;;;;5084795;28;20028;-49
2022/10/19 11:32:47;;;;;;;1.98;1.27;;;;;;;;;;5088235;28;20368;-46
2022/10/19 11:35:13;;;;;;;;;;;;;;;;;;5080421;28;20046;-50
2022/10/19 11:37:39;;;;;;;;;;;;;;;;;;5074832;28;19987;-49
2022/10/19 11:40:05;;;;;;;;;;;;;;;;;;5069365;28;19954;-49
2022/10/19 11:42:30;;;;;;;;;;;;;;;;;;5086451;28;19998;-47
2022/10/19 11:44:56;;;;;;;;;;;;;;;;;;5089324;28;19904;-46
2022/10/19 11:47:30;;;;;;;2.28;1.40;;;;;;;;;;5081987;28;21014;-49
2022/10/19 11:50:14;;;;;;;4.18;1.65;;;;;;;;;;5068526;28;20039;-46
2022/10/19 11:52:45;;;;;;;;;;;;;;;;;;5069129;28;20180;-50
2022/10/19 11:55:11;;;;;;;;;;;;;;;;;;5078842;28;19915;-47
2022/10/19 11:57:37;;;;;;;;;;;;;;;;;;5085377;28;20030;-48
2022/10/19 12:00:03;;;;;;;;;;;;;;;;;;5088220;28;20010;-47
2022/10/19 12:02:29;;;;;;;;;;;;;;;;;;5088085;28;19912;-49
2022/10/19 12:04:54;;;;;;;;;;;;;;;;;;5087121;28;20454;-46
2022/10/19 12:07:20;;;;;;;;;;;;;;;;;;5074811;28;20007;-46
2022/10/19 12:09:46;;;;;;;;;;;;;;;;;;5087024;28;19919;-50
2022/10/19 12:12:12;;;;;;;;;;;;;;;;;;5088760;28;20108;-48
2022/10/19 12:14:38;;;;;;;;;;;;;;;;;;5083277;28;20480;-51
2022/10/19 12:17:04;;;;;;;;;;;;;;;;;;5072368;28;19960;-48
2022/10/19 12:19:30;;;;;;;;;;;;;;;;;;5075810;28;20371;-48
2022/10/19 12:21:56;;;;;;;;;;;;;;;;;;5083924;28;19915;-48
2022/10/19 12:24:22;;;;;;;;;;;;;;;;;;5075800;28;19908;-48
2022/10/19 12:26:48;;;;;;;;;;;;;;;;;;5086774;28;19949;-46
2022/10/19 12:29:14;;;;;;;;;;;;;;;;;;5079204;28;19908;-47
2022/10/19 12:31:39;;;;;;;;;;;;;;;;;;5075976;28;19915;-51
2022/10/19 12:34:05;;;;;;;;;;;;;;;;;;5079199;28;20440;-52
2022/10/19 12:36:31;;;;;;;;;;;;;;;;;;5088243;28;19904;-51
2022/10/19 12:38:57;;;;;;;;;;;;;;;;;;5086348;28;20367;-48
2022/10/19 12:41:23;;;;;;;;;;;;;;;;;;5078394;28;19916;-51
2022/10/19 12:43:49;;;;;;;;;;;;;;;;;;5068135;28;19962;-51
2022/10/19 12:46:15;;;;;;;;;;;;;;;;;;5083598;28;19915;-47
2022/10/19 12:48:41;;;;;;;;;;;;;;;;;;5087862;28;19930;-51
2022/10/19 12:51:06;;;;;;;;;;;;;;;;;;5088191;28;20402;-52
2022/10/19 12:53:36;;;;;;;;;;;;;;;;;;5086565;28;19958;-47
2022/10/19 12:56:02;;;;;;;;;;;;;;;;;;5077349;28;19908;-49
2022/10/19 12:58:28;;;;;;;;;;;;;;;;;;5087529;28;19911;-48
2022/10/19 13:00:54;;;;;;;;;;;;;;;;;;5085980;28;20048;-49
2022/10/19 13:03:20;;;;;;;;;;;;;;;;;;5088084;28;20547;-51
2022/10/19 13:05:46;;;;;;;;;;;;;;;;;;5087544;28;19908;-49
2022/10/19 13:08:12;;;;;;;;;;;;;;;;;;5091981;28;19938;-51
2022/10/19 13:10:38;;;;;;;;;;;;;;;;;;5092343;28;19912;-51
2022/10/19 13:13:03;;;;;;;;;;;;;;;;;;5089815;28;19912;-51
2022/10/19 13:15:29;;;;;;;;;;;;;;;;;;5092187;28;19904;-49
2022/10/19 13:17:55;;;;;;;;;;;;;;;;;;5092047;28;19936;-48
2022/10/19 13:20:23;;;;;;;;;;;;;;;;;;5090616;28;19908;-48
2022/10/19 13:22:49;;;;;;;;;;;;;;;;;;5091370;28;20358;-52
2022/10/19 13:25:18;;;;;;;;;;;;;;;;;;5091837;28;19951;-49
2022/10/19 13:27:44;;;;;;;;;;;;;;;;;;5072565;28;19947;-47
2022/10/19 13:30:10;;;;;;;;;;;;;;;;;;5071694;28;19955;-51
2022/10/19 13:32:36;;;;;;;;;;;;;;;;;;5090240;28;20363;-49
2022/10/19 13:35:02;;;;;;;;;;;;;;;;;;5080538;28;20051;-48
2022/10/19 13:37:27;;;;;;;;;;;;;;;;;;5070361;28;19980;-49
2022/10/19 13:39:54;;;;;;;;;;;;;;;;;;5070121;28;19904;-46
2022/10/19 13:42:20;;;;;;;;;;;;;;;;;;5069771;28;19912;-49
2022/10/19 13:44:46;;;;;;;;;;;;;;;;;;5073339;28;20367;-46
2022/10/19 13:47:11;;;;;;;;;;;;;;;;;;5090699;28;19911;-46
2022/10/19 13:49:37;;;;;;;;;;;;;;;;;;5090162;28;19904;-50
2022/10/19 13:52:03;;;;;;;;;;;;;;;;;;5085935;28;20011;-49
2022/10/19 13:54:48;;;;;;;2.07;1.37;;;;;;;;;;5086519;28;20427;-48
2022/10/19 13:57:14;;;;;;;;;;;;;;;;;;5070721;28;20681;-50
2022/10/19 13:59:40;;;;;;;;;;;;;;;;;;5082248;28;19935;-50
2022/10/19 14:02:08;;;;;;;;;;;;;;;;;;5090911;28;19904;-50
2022/10/19 14:04:34;;;;;;;;;;;;;;;;;;5091238;28;19907;-51
2022/10/19 14:07:00;;;;;;;;;;;;;;;;;;5105111;28;19907;-50
2022/10/19 14:09:26;;;;;;;;;;;;;;;;;;5097553;28;19934;-50
2022/10/19 15:39:43;;;;;;;;;;;;;;;;;;5086872;28;20423;-50
2022/10/19 15:42:09;;;;;;;;;;;;;;;;;;5088286;28;19957;-47
2022/10/19 15:44:35;;;;;;;;;;;;;;;;;;5081038;28;19908;-50
2022/10/19 15:47:01;;;;;;;;;;;;;;;;;;5067872;28;19904;-50
2022/10/19 15:49:27;;;;;;;;;;;;;;;;;;5067546;28;19924;-50
2022/10/19 15:51:53;;;;;;;;;;;;;;;;;;5067662;28;20264;-49
2022/10/19 15:54:19;;;;;;;;;;;;;;;;;;5067735;28;19912;-49
2022/10/19 15:56:46;;;;;;;2.60;1.70;;;;;;;;;;5066027;28;20953;-49
2022/10/19 15:59:17;;;;;;;5.57;1.55;;;;;;;;;;5067237;28;20032;-47
2022/10/19 16:01:43;;;;;;;2.83;1.60;;;;;;;;;;5067055;28;20108;-47
2022/10/19 16:04:09;;;;;;;3.45;1.50;;;;;;;;;;5066892;28;20074;-50
2022/10/19 16:06:38;;;;;;;2.42;1.40;;;;;;;;;;5066953;28;20029;-49
2022/10/19 16:09:04;;;;;;;2.22;1.50;;;;;;;;;;5069732;28;20023;-49
2022/10/19 16:11:30;;;;;;;4.28;2.08;;;;;;;;;;5076001;28;20068;-50
2022/10/19 16:13:59;;;;;;;2.72;1.52;;;;;;;;;;5072205;28;20029;-51
2022/10/19 16:16:26;;;;;;;1.70;1.20;;;;;;;;;;5068148;28;20031;-50
2022/10/19 16:18:52;;;;;;;2.92;1.58;;;;;;;;;;5075247;28;20030;-48
2022/10/19 16:21:20;;;;;;;2.78;1.33;;;;;;;;;;5084667;28;20024;-47
2022/10/19 16:23:46;;;;;;;2.08;1.60;;;;;;;;;;5088598;28;20028;-48
2022/10/19 16:26:14;;;;;;;2.13;1.30;;;;;;;;;;5084171;28;20423;-46
2022/10/19 16:28:40;;;;;;;4.45;1.52;;;;;;;;;;5082126;28;20037;-48
2022/10/19 16:31:06;;;;;;;2.70;1.42;;;;;;;;;;5074653;28;20035;-46
2022/10/19 16:33:32;;;;;;;2.72;1.73;;;;;;;;;;5068264;28;20025;-49
2022/10/19 16:35:58;;;;;;;;;;;;;;;;;;5068298;28;20031;-49
2022/10/19 16:38:24;;;;;;;;;;;;;;;;;;5066010;28;20252;-46
2022/10/19 16:40:49;;;;;;;;;;;;;;;;;;5080954;28;19912;-46
2022/10/19 16:43:15;;;;;;;;;;;;;;;;;;5086505;28;20426;-46
2022/10/19 16:45:41;;;;;;;;;;;;;;;;;;5085932;28;19904;-46
2022/10/19 16:48:07;;;;;;;;;;;;;;;;;;5084010;28;20402;-46
2022/10/19 16:50:33;;;;;;;;;;;;;;;;;;5088376;28;19958;-47
2022/10/19 16:52:59;;;;;;;;;;;;;;;;;;5072619;28;20010;-47
2022/10/19 16:55:25;;;;;;;;;;;;;;;;;;5067956;28;19905;-46
2022/10/19 16:57:52;;;;;;;;;;;;;;;;;;5075993;28;19909;-47
2022/10/19 17:00:18;;;;;;;;;;;;;;;;;;5083995;28;19916;-48
2022/10/19 17:02:44;;;;;;;;;;;;;;;;;;5083005;28;19922;-46
2022/10/19 17:05:09;;;;;;;;;;;;;;;;;;5087828;28;19926;-47
2022/10/19 17:07:35;;;;;;;;;;;;;;;;;;5086955;28;19908;-47
2022/10/19 17:10:01;;;;;;;;;;;;;;;;;;5086559;28;19908;-46
2022/10/19 17:12:27;;;;;;;;;;;;;;;;;;5086987;28;19908;-50
2022/10/19 17:14:53;;;;;;;;;;;;;;;;;;5088681;28;19908;-46
2022/10/19 17:17:19;;;;;;;;;;;;;;;;;;5082794;28;19930;-46
2022/10/19 17:19:46;;;;;;;;;;;;;;;;;;5077934;28;20512;-47
2022/10/19 17:22:12;;;;;;;;;;;;;;;;;;5077739;28;19908;-49
2022/10/19 17:24:38;;;;;;;;;;;;;;;;;;5086689;28;20368;-49
2022/10/19 17:27:04;;;;;;;;;;;;;;;;;;5076818;28;19911;-48
2022/10/19 17:29:30;;;;;;;;;;;;;;;;;;5085808;28;19911;-48
2022/10/19 17:31:55;;;;;;;;;;;;;;;;;;5085677;28;20352;-52
2022/10/19 17:34:21;;;;;;;;;;;;;;;;;;5083627;28;19908;-52
2022/10/19 17:36:47;;;;;;;;;;;;;;;;;;5082111;28;19908;-52
2022/10/19 17:39:14;;;;;;;;;;;;;;;;;;5084278;28;19904;-49
2022/10/19 17:41:39;;;;;;;;;;;;;;;;;;5085673;28;19953;-52
2022/10/19 17:44:05;;;;;;;;;;;;;;;;;;5085805;28;19908;-51
2022/10/19 17:46:31;;;;;;;;;;;;;;;;;;5075655;28;19909;-51
2022/10/19 17:48:57;;;;;;;;;;;;;;;;;;5078683;28;19994;-48
2022/10/19 17:51:23;;;;;;;;;;;;;;;;;;5078083;28;19927;-51
2022/10/19 17:53:49;;;;;;;;;;;;;;;;;;5077290;28;19912;-50